Time;durP1;ratioP1;P1;durP2;ratioP2;P2;SDS_P1;SDS_P2;PMS_P1;PMS_P2;Temp;Humidity;BMP_temperature;BMP_pressure;BME280_temperature;BME280_humidity;BME280_pressure;Samples;Min_cycle;Max_cycle;Signal;HPM_P1;HPM_P2
2023/07/12 00:00:49;;;;;;;;;;;;;;;28.89;41.10;100854.78;103086;1284;62209;-82
2023/07/12 00:03:15;;;;;;;;;;;;;;;28.89;40.78;100851.73;102954;1284;62288;-81
2023/07/12 00:05:40;;;;;;;;;;;;;;;28.89;41.06;100849.05;103078;1287;60901;-81
2023/07/12 00:08:08;;;;;;;;;;;;;;;28.89;40.83;100846.73;103196;1286;67684;-81
2023/07/12 00:10:34;;;;;;;;;;;;;;;28.89;40.97;100846.52;102883;1284;60857;-81
2023/07/12 00:13:00;;;;;;;;;;;;;;;28.89;40.93;100846.52;103113;1284;62173;-82
2023/07/12 00:15:26;;;;;;;;;;;;;;;28.88;40.89;100849.48;102996;1284;62150;-82
2023/07/12 00:17:52;;;;;;;;;;;;;;;28.88;40.88;100848.22;102934;1284;62916;-82
2023/07/12 00:20:18;;;;;;;;;;;;;;;28.88;40.99;100852.03;103001;1289;62221;-82
2023/07/12 00:22:44;;;;;;;;;;;;;;;28.87;41.09;100850.44;103045;1284;60971;-82
2023/07/12 00:25:09;;;;;;;;;;;;;;;28.88;41.21;100844.79;102917;1284;63043;-82
2023/07/12 00:27:35;;;;;;;;;;;;;;;28.87;41.17;100845.73;103333;1284;60863;-82
2023/07/12 00:30:00;;;;;;;;;;;;;;;28.87;41.03;100845.08;103049;1284;66718;-82
2023/07/12 00:32:26;;;;;;;;;;;;;;;28.87;41.07;100848.84;103121;1289;60841;-82
2023/07/12 00:34:51;;;;;;;;;;;;;;;28.87;41.21;100850.09;102991;1284;63159;-82
2023/07/12 00:37:18;;;;;;;;;;;;;;;28.87;41.20;100851.55;103068;1284;62303;-82
2023/07/12 00:39:43;;;;;;;;;;;;;;;28.87;41.04;100850.91;103001;1284;63085;-82
2023/07/12 00:42:12;;;;;;;;;;;;;;;28.87;41.07;100854.16;103085;1288;60798;-82
2023/07/12 00:44:58;;;;;;;;;;;;;;;28.87;41.15;100855.24;102977;1285;62179;-82
2023/07/12 00:47:23;;;;;;;;;;;;;;;28.87;40.99;100856.88;103098;1284;62891;-82
2023/07/12 00:49:48;;;;;;;;;;;;;;;28.87;41.05;100857.43;103074;1284;63062;-82
2023/07/12 00:52:15;;;;;;;;;;;;;;;28.87;41.03;100857.59;103127;1284;62202;-82
2023/07/12 00:54:54;;;;;;;;;;;;;;;28.87;41.25;100859.42;103084;1284;63118;-82
2023/07/12 00:57:20;;;;;;;;;;;;;;;28.86;41.03;100856.03;103270;1284;62976;-82
2023/07/12 00:59:45;;;;;;;;;;;;;;;28.86;40.91;100859.83;103095;1284;62187;-82
2023/07/12 01:02:11;;;;;;;;;;;;;;;28.85;41.08;100859.34;103075;1284;62197;-82
2023/07/12 01:04:37;;;;;;;;;;;;;;;28.85;41.13;100858.64;102955;1285;62141;-82
2023/07/12 01:07:03;;;;;;;;;;;;;;;28.85;41.05;100857.38;103220;1284;62949;-82
2023/07/12 01:09:29;;;;;;;;;;;;;;;28.85;41.06;100855.61;103014;1285;60890;-82
2023/07/12 01:11:54;;;;;;;;;;;;;;;28.85;41.10;100854.48;102979;1284;62314;-82
2023/07/12 01:14:20;;;;;;;;;;;;;;;28.86;41.15;100856.09;103011;1284;73476;-82
2023/07/12 01:16:49;;;;;;;;;;;;;;;28.85;40.95;100856.84;103016;1284;60846;-82
2023/07/12 01:19:14;;;;;;;;;;;;;;;28.85;41.12;100859.55;103173;1284;62047;-82
2023/07/12 01:21:44;;;;;;;;;;;;;;;28.85;41.29;100862.13;102913;1285;63048;-82
2023/07/12 01:24:09;;;;;;;;;;;;;;;28.85;41.21;100866.10;103088;1284;65630;-82
2023/07/12 01:26:36;;;;;;;;;;;;;;;28.85;41.21;100867.02;103217;1284;63106;-82
2023/07/12 01:29:02;;;;;;;;;;;;;;;28.85;41.25;100864.67;102913;1284;62294;-82
2023/07/12 01:31:28;;;;;;;;;;;;;;;28.84;41.29;100868.52;102911;1284;62311;-82
2023/07/12 01:33:54;;;;;;;;;;;;;;;28.84;41.24;100870.89;103092;1289;62156;-82
2023/07/12 01:36:20;;;;;;;;;;;;;;;28.84;41.09;100870.38;102931;1284;63124;-82
2023/07/12 01:38:46;;;;;;;;;;;;;;;28.84;41.36;100875.43;102937;1284;60805;-82
2023/07/12 01:41:11;;;;;;;;;;;;;;;28.84;41.33;100881.81;103044;1284;63107;-82
2023/07/12 01:43:37;;;;;;;;;;;;;;;28.84;41.27;100881.25;103152;1284;60902;-82
2023/07/12 01:46:03;;;;;;;;;;;;;;;28.84;41.23;100891.43;102996;1287;63089;-82
2023/07/12 01:48:28;;;;;;;;;;;;;;;28.83;41.24;100895.98;102978;1284;63094;-82
2023/07/12 01:50:53;;;;;;;;;;;;;;;28.83;41.29;100899.05;102820;1284;62307;-82
2023/07/12 01:53:19;;;;;;;;;;;;;;;28.83;41.24;100905.39;102914;1285;60856;-82
2023/07/12 01:55:45;;;;;;;;;;;;;;;28.83;41.23;100906.16;103056;1284;62199;-82
2023/07/12 01:58:10;;;;;;;;;;;;;;;28.83;41.26;100905.65;102918;1285;66569;-82
2023/07/12 02:00:36;;;;;;;;;;;;;;;28.83;41.24;100902.73;102948;1284;63113;-82
2023/07/12 02:03:01;;;;;;;;;;;;;;;28.83;41.27;100902.92;102955;1284;62193;-82
2023/07/12 02:05:27;;;;;;;;;;;;;;;28.82;41.23;100902.14;102978;1284;63070;-82
2023/07/12 02:07:56;;;;;;;;;;;;;;;28.82;41.11;100911.86;102830;1284;62284;-82
2023/07/12 02:10:21;;;;;;;;;;;;;;;28.82;41.22;100915.65;103092;1284;62957;-82
2023/07/12 02:12:47;;;;;;;;;;;;;;;28.82;41.40;100920.21;102999;1284;62186;-82
2023/07/12 02:15:12;;;;;;;;;;;;;;;28.82;41.31;100921.98;103013;1284;62205;-82
2023/07/12 02:17:38;;;;;;;;;;;;;;;28.82;41.09;100922.39;102972;1284;63954;-82
2023/07/12 02:20:04;;;;;;;;;;;;;;;28.82;41.37;100927.64;103127;1284;62171;-82
2023/07/12 02:22:30;;;;;;;;;;;;;;;28.82;41.30;100927.64;103035;1284;62968;-82
2023/07/12 02:24:55;;;;;;;;;;;;;;;28.82;41.29;100928.36;103055;1284;62121;-82
2023/07/12 02:27:21;;;;;;;;;;;;;;;28.81;41.40;100933.33;102953;1284;62265;-82
2023/07/12 02:29:46;;;;;;;;;;;;;;;28.80;41.28;100934.16;103023;1284;62760;-82
2023/07/12 02:32:11;;;;;;;;;;;;;;;28.81;41.29;100936.40;102943;1284;62071;-82
2023/07/12 02:34:37;;;;;;;;;;;;;;;28.81;41.31;100936.06;103067;1285;62174;-82
2023/07/12 02:37:02;;;;;;;;;;;;;;;28.81;41.45;100938.78;103012;1284;62069;-82
2023/07/12 02:39:28;;;;;;;;;;;;;;;28.81;41.41;100940.63;102995;1285;62941;-82
2023/07/12 02:41:53;;;;;;;;;;;;;;;28.81;41.44;100949.68;103085;1284;64752;-82
2023/07/12 02:44:19;;;;;;;;;;;;;;;28.81;41.40;100958.01;102868;1285;62205;-82
2023/07/12 02:46:45;;;;;;;;;;;;;;;28.80;41.41;100959.88;102980;1284;63161;-82
2023/07/12 02:49:10;;;;;;;;;;;;;;;28.80;41.44;100954.61;103085;1284;62194;-82
2023/07/12 02:51:36;;;;;;;;;;;;;;;28.80;41.32;100950.47;102941;1284;62244;-82
2023/07/12 02:54:01;;;;;;;;;;;;;;;28.80;41.36;100945.61;102979;1284;60851;-82
2023/07/12 02:56:27;;;;;;;;;;;;;;;28.80;41.32;100948.88;102998;1284;63049;-82
2023/07/12 02:58:52;;;;;;;;;;;;;;;28.80;41.29;100949.95;103043;1284;60764;-82
2023/07/12 03:01:17;;;;;;;;;;;;;;;28.80;41.41;100954.13;103955;1284;62063;-82
2023/07/12 03:03:43;;;;;;;;;;;;;;;28.80;41.23;100955.93;103675;1284;62188;-82
2023/07/12 03:06:09;;;;;;;;;;;;;;;28.79;41.33;100960.34;103728;1284;64618;-82
2023/07/12 03:08:35;;;;;;;;;;;;;;;28.80;41.44;100963.20;103895;1284;62202;-82
2023/07/12 03:11:01;;;;;;;;;;;;;;;28.80;41.28;100966.43;103788;1284;62163;-82
2023/07/12 03:13:28;;;;;;;;;;;;;;;28.80;41.40;100966.98;103676;1284;62188;-82
2023/07/12 03:15:54;;;;;;;;;;;;;;;28.80;41.39;100968.80;103187;1284;62261;-82
2023/07/12 03:18:19;;;;;;;;;;;;;;;28.80;41.36;100967.55;103025;1284;62289;-82
2023/07/12 03:20:45;;;;;;;;;;;;;;;28.80;41.33;100969.34;103133;1284;62254;-82
2023/07/12 03:23:10;;;;;;;;;;;;;;;28.80;41.45;100969.55;103193;1284;62199;-82
2023/07/12 03:25:36;;;;;;;;;;;;;;;28.80;41.41;100979.67;102939;1286;60858;-82
2023/07/12 03:28:01;;;;;;;;;;;;;;;28.80;41.49;100987.46;103136;1284;62179;-82
2023/07/12 03:30:26;;;;;;;;;;;;;;;28.80;41.23;100997.77;102900;1284;60918;-82
2023/07/12 03:32:52;;;;;;;;;;;;;;;28.80;41.48;101002.83;103045;1284;62969;-82
2023/07/12 03:35:17;;;;;;;;;;;;;;;28.80;41.55;101002.48;103003;1284;60907;-82
2023/07/12 03:37:43;;;;;;;;;;;;;;;28.80;41.54;101006.98;103036;1284;63034;-82
2023/07/12 03:40:08;;;;;;;;;;;;;;;28.80;41.16;101007.22;102892;1284;60360;-82
2023/07/12 03:42:34;;;;;;;;;;;;;;;28.80;41.42;101005.04;103092;1289;63067;-82
2023/07/12 03:45:00;;;;;;;;;;;;;;;28.80;41.40;101010.48;102945;1284;60896;-82
2023/07/12 03:47:25;;;;;;;;;;;;;;;28.80;41.42;101014.98;103104;1284;62235;-81
2023/07/12 03:49:50;;;;;;;;;;;;;;;28.80;41.39;101018.79;103165;1284;60877;-81
2023/07/12 03:52:16;;;;;;;;;;;;;;;28.80;41.45;101023.27;103052;1289;62204;-81
2023/07/12 03:54:41;;;;;;;;;;;;;;;28.81;41.33;101034.30;102990;1284;62237;-81
2023/07/12 03:57:07;;;;;;;;;;;;;;;28.80;41.17;101033.96;102988;1284;63146;-81
2023/07/12 03:59:32;;;;;;;;;;;;;;;28.81;41.38;101030.88;103197;1284;62261;-82
2023/07/12 04:01:58;;;;;;;;;;;;;;;28.81;41.22;101031.77;103056;1284;62199;-82
2023/07/12 04:04:23;;;;;;;;;;;;;;;28.80;41.41;101033.42;103031;1284;60886;-82
2023/07/12 04:06:49;;;;;;;;;;;;;;;28.80;41.26;101027.25;102930;1284;63121;-82
2023/07/12 04:09:14;;;;;;;;;;;;;;;28.80;41.41;101022.96;102883;1284;60971;-83
2023/07/12 04:11:41;;;;;;;;;;;;;;;28.79;41.30;101019.56;103026;1284;62183;-82
2023/07/12 04:14:07;;;;;;;;;;;;;;;28.79;41.39;101020.70;103042;1284;62194;-82
2023/07/12 04:16:32;;;;;;;;;;;;;;;28.79;41.29;101024.38;102922;1284;62218;-82
2023/07/12 04:18:58;;;;;;;;;;;;;;;28.78;41.28;101029.48;102923;1284;62277;-82
2023/07/12 04:21:23;;;;;;;;;;;;;;;28.77;41.31;101032.64;103070;1284;62200;-82
2023/07/12 04:23:49;;;;;;;;;;;;;;;28.76;41.17;101033.63;103043;1284;63108;-82
2023/07/12 04:26:15;;;;;;;;;;;;;;;28.76;41.13;101038.00;103029;1284;62096;-82
2023/07/12 04:28:40;;;;;;;;;;;;;;;28.76;41.08;101045.80;102950;1285;60869;-82
2023/07/12 04:31:06;;;;;;;;;;;;;;;28.75;41.16;101050.01;102928;1284;62474;-82
2023/07/12 04:33:32;;;;;;;;;;;;;;;28.74;41.05;101047.73;103036;1284;60961;-81
2023/07/12 04:35:57;;;;;;;;;;;;;;;28.75;41.09;101051.14;103115;1284;62995;-81
2023/07/12 04:38:23;;;;;;;;;;;;;;;28.75;41.10;101045.33;102908;1285;60895;-81
2023/07/12 04:40:55;;;;;;;;;;;;;;;28.75;40.87;101043.54;102910;1284;63085;-82
2023/07/12 04:43:20;;;;;;;;;;;;;;;28.75;40.79;101047.36;102927;1285;67767;-82
2023/07/12 04:45:46;;;;;;;;;;;;;;;28.75;40.98;101053.17;103083;1284;63246;-82
2023/07/12 04:48:11;;;;;;;;;;;;;;;28.75;40.66;101058.58;102959;1284;62255;-83
2023/07/12 04:50:37;;;;;;;;;;;;;;;28.75;40.63;101066.11;103076;1284;62083;-83
2023/07/12 04:53:03;;;;;;;;;;;;;;;28.75;40.66;101066.83;102969;1284;62150;-82
2023/07/12 04:55:28;;;;;;;;;;;;;;;28.76;40.87;101067.54;102938;1289;67500;-82
2023/07/12 04:57:54;;;;;;;;;;;;;;;28.76;40.76;101068.73;103046;1285;62186;-82
2023/07/12 05:00:19;;;;;;;;;;;;;;;28.77;40.51;101071.06;103035;1284;63084;-82
2023/07/12 05:02:48;;;;;;;;;;;;;;;28.77;40.55;101072.33;103008;1284;60867;-82
2023/07/12 05:05:14;;;;;;;;;;;;;;;28.79;40.60;101073.27;103298;1286;67372;-82
2023/07/12 05:07:40;;;;;;;;;;;;;;;28.77;40.47;101074.99;103106;1284;62968;-82
2023/07/12 05:10:06;;;;;;;;;;;;;;;28.78;40.42;101078.77;102956;1287;62190;-82
2023/07/12 05:12:32;;;;;;;;;;;;;;;28.79;40.71;101087.36;102914;1284;62015;-82
2023/07/12 05:14:58;;;;;;;;;;;;;;;28.79;40.37;101089.37;102982;1287;62069;-82
2023/07/12 05:17:23;;;;;;;;;;;;;;;28.79;40.38;101087.54;103162;1284;63034;-82
2023/07/12 05:19:48;;;;;;;;;;;;;;;28.79;40.33;101086.77;102993;1284;60855;-82
2023/07/12 05:22:14;;;;;;;;;;;;;;;28.79;40.32;101082.05;103034;1284;62966;-82
2023/07/12 05:24:39;;;;;;;;;;;;;;;28.80;40.20;101087.05;103180;1289;62014;-82
2023/07/12 05:27:05;;;;;;;;;;;;;;;28.80;40.11;101087.73;102957;1284;62959;-82
2023/07/12 05:29:30;;;;;;;;;;;;;;;28.81;40.22;101088.99;103580;1284;62758;-81
2023/07/12 05:31:56;;;;;;;;;;;;;;;28.81;40.30;101083.14;103144;1284;62254;-82
2023/07/12 05:34:21;;;;;;;;;;;;;;;28.82;39.91;101083.05;103168;1286;60941;-82
2023/07/12 05:36:47;;;;;;;;;;;;;;;28.82;40.16;101087.20;103373;1284;62200;-82
2023/07/12 05:39:13;;;;;;;;;;;;;;;28.82;40.33;101094.05;103442;1284;60850;-83
2023/07/12 05:41:38;;;;;;;;;;;;;;;28.83;40.30;101092.40;103750;1284;62159;-82
2023/07/12 05:44:04;;;;;;;;;;;;;;;28.83;40.12;101088.34;103236;1284;62190;-82
2023/07/12 05:46:29;;;;;;;;;;;;;;;28.85;40.17;101080.44;103713;1284;62995;-82
2023/07/12 05:48:55;;;;;;;;;;;;;;;28.85;40.09;101072.22;103757;1287;62190;-82
2023/07/12 05:51:21;;;;;;;;;;;;;;;28.86;40.11;101064.14;103363;1284;63055;-82
2023/07/12 05:53:47;;;;;;;;;;;;;;;28.87;40.19;101055.56;103309;1289;62242;-82
2023/07/12 05:56:13;;;;;;;;;;;;;;;28.87;40.01;101058.45;103577;1284;61954;-82
2023/07/12 05:58:38;;;;;;;;;;;;;;;28.88;39.94;101060.73;103121;1286;60867;-83
2023/07/12 06:01:05;;;;;;;;;;;;;;;28.88;40.11;101060.67;103821;1285;62184;-82
2023/07/12 06:03:31;;;;;;;;;;;;;;;28.90;40.07;101063.05;104158;1282;62197;-82
2023/07/12 06:05:57;;;;;;;;;;;;;;;28.90;39.99;101063.20;104033;1285;60946;-82
2023/07/12 06:08:23;;;;;;;;;;;;;;;28.90;39.94;101061.16;103979;1282;62185;-82
2023/07/12 06:10:49;;;;;;;;;;;;;;;28.91;39.99;101057.85;104286;1283;60745;-82
2023/07/12 06:13:14;;;;;;;;;;;;;;;28.91;39.89;101053.13;104096;1284;63084;-82
2023/07/12 06:15:40;;;;;;;;;;;;;;;28.92;40.05;101058.65;103307;1287;62183;-82
2023/07/12 06:18:05;;;;;;;;;;;;;;;28.93;39.94;101059.86;103523;1284;60889;-82
2023/07/12 06:20:31;;;;;;;;;;;;;;;28.93;39.92;101059.23;103831;1284;62078;-82
2023/07/12 06:22:57;;;;;;;;;;;;;;;28.93;39.96;101059.06;103409;1285;62611;-82
2023/07/12 06:25:23;;;;;;;;;;;;;;;28.94;39.98;101055.21;103742;1285;63082;-82
2023/07/12 06:27:48;;;;;;;;;;;;;;;28.94;39.91;101046.70;103973;1284;62067;-82
2023/07/12 06:30:15;;;;;;;;;;;;;;;28.94;39.73;101048.69;103472;1284;62269;-82
2023/07/12 06:32:41;;;;;;;;;;;;;;;28.94;39.98;101054.84;103801;1285;62143;-82
2023/07/12 06:35:06;;;;;;;;;;;;;;;28.95;39.75;101056.04;103878;1285;60821;-82
2023/07/12 06:37:32;;;;;;;;;;;;;;;28.96;39.83;101055.98;103557;1283;66772;-82
2023/07/12 06:39:57;;;;;;;;;;;;;;;28.95;39.86;101051.64;103632;1284;62247;-82
2023/07/12 06:42:23;;;;;;;;;;;;;;;28.95;39.58;101053.63;103987;1284;60837;-82
2023/07/12 06:44:48;;;;;;;;;;;;;;;28.96;39.78;101057.60;103587;1284;63250;-82
2023/07/12 06:47:14;;;;;;;;;;;;;;;28.96;39.67;101058.11;104211;1285;60822;-82
2023/07/12 06:49:39;;;;;;;;;;;;;;;28.96;39.77;101057.88;103897;1284;62207;-82
2023/07/12 06:52:05;;;;;;;;;;;;;;;28.96;39.88;101055.16;103997;1284;63035;-82
2023/07/12 06:54:31;;;;;;;;;;;;;;;28.97;39.77;101053.00;103848;1283;62233;-82
2023/07/12 06:56:57;;;;;;;;;;;;;;;28.96;39.90;101053.77;104368;1287;60754;-82
2023/07/12 06:59:23;;;;;;;;;;;;;;;28.96;39.65;101056.09;103873;1287;61184;-82
2023/07/12 07:01:48;;;;;;;;;;;;;;;28.97;39.71;101054.04;103869;1284;62242;-82
2023/07/12 07:04:14;;;;;;;;;;;;;;;28.97;39.53;101051.67;103566;1287;62086;-82
2023/07/12 07:06:39;;;;;;;;;;;;;;;28.97;39.58;101049.63;103433;1285;62199;-82
2023/07/12 07:09:05;;;;;;;;;;;;;;;28.97;39.76;101059.61;102962;1284;631350;-82
2023/07/12 07:11:30;;;;;;;;;;;;;;;28.97;39.81;101054.59;104007;1284;62186;-82
2023/07/12 07:13:56;;;;;;;;;;;;;;;28.97;39.69;101057.48;103505;1287;60890;-82
2023/07/12 07:16:22;;;;;;;;;;;;;;;28.97;39.50;101057.83;103297;1284;63070;-82
2023/07/12 07:18:49;;;;;;;;;;;;;;;28.97;39.54;101062.16;103320;1288;62241;-82
2023/07/12 07:21:15;;;;;;;;;;;;;;;28.97;39.53;101061.42;103653;1287;63670;-82
2023/07/12 07:23:40;;;;;;;;;;;;;;;28.98;39.47;101063.00;103349;1286;62435;-82
2023/07/12 07:26:07;;;;;;;;;;;;;;;28.97;39.42;101062.51;103667;1288;62175;-82
2023/07/12 07:28:32;;;;;;;;;;;;;;;28.97;39.56;101062.11;103446;1286;62124;-82
2023/07/12 07:30:58;;;;;;;;;;;;;;;28.98;39.53;101062.25;102951;1287;62188;-82
2023/07/12 07:33:24;;;;;;;;;;;;;;;28.98;39.46;101060.83;103207;1288;61274;-82
2023/07/12 07:35:49;;;;;;;;;;;;;;;28.98;39.57;101058.45;103224;1286;67303;-82
2023/07/12 07:38:14;;;;;;;;;;;;;;;28.98;39.44;101057.93;103277;1287;62238;-82
2023/07/12 07:40:40;;;;;;;;;;;;;;;28.98;39.71;101058.27;103317;1286;63334;-82
2023/07/12 07:43:06;;;;;;;;;;;;;;;28.98;39.60;101061.37;103273;1284;60910;-82
2023/07/12 07:45:32;;;;;;;;;;;;;;;28.98;39.46;101058.45;103405;1285;62197;-82
2023/07/12 07:47:57;;;;;;;;;;;;;;;28.98;39.49;101052.77;103264;1286;60861;-82
2023/07/12 07:50:23;;;;;;;;;;;;;;;28.99;39.54;101047.33;103520;1284;62254;-82
2023/07/12 07:52:48;;;;;;;;;;;;;;;28.99;39.31;101047.62;103370;1284;62276;-82
2023/07/12 07:55:14;;;;;;;;;;;;;;;29.00;39.49;101048.45;103442;1289;62562;-82
2023/07/12 07:57:39;;;;;;;;;;;;;;;29.00;39.45;101048.62;103174;1285;62264;-82
2023/07/12 08:00:10;;;;;;;;;;;;;;;29.01;39.56;101045.64;103484;1284;60169;-82
2023/07/12 08:02:35;;;;;;;;;;;;;;;29.01;39.56;101045.77;102984;1284;60865;-82
2023/07/12 08:05:01;;;;;;;;;;;;;;;29.02;39.53;101046.61;103145;1286;63079;-82
2023/07/12 08:07:26;;;;;;;;;;;;;;;29.02;39.33;101048.60;103190;1288;60898;-82
2023/07/12 08:09:52;;;;;;;;;;;;;;;29.02;39.40;101052.10;103007;1284;62079;-82
2023/07/12 08:12:18;;;;;;;;;;;;;;;29.03;39.45;101053.23;103170;1290;62179;-83
2023/07/12 08:14:43;;;;;;;;;;;;;;;29.03;39.29;101050.81;103182;1284;62196;-82
2023/07/12 08:17:10;;;;;;;;;;;;;;;29.03;39.41;101050.31;103250;1285;60834;-82
2023/07/12 08:19:36;;;;;;;;;;;;;;;29.03;39.24;101052.11;103323;1285;62212;-82
2023/07/12 08:22:02;;;;;;;;;;;;;;;29.03;39.44;101056.96;103334;1289;60867;-82
2023/07/12 08:24:27;;;;;;;;;;;;;;;29.04;39.38;101055.52;103212;1290;63053;-82
2023/07/12 08:26:53;;;;;;;;;;;;;;;29.04;39.44;101052.08;103160;1284;60922;-82
2023/07/12 08:29:18;;;;;;;;;;;;;;;29.04;39.43;101053.69;103194;1290;63082;-82
2023/07/12 08:31:44;;;;;;;;;;;;;;;29.04;39.36;101052.96;103143;1290;62176;-82
2023/07/12 08:34:09;;;;;;;;;;;;;;;29.03;39.55;101044.88;102884;1286;63087;-82
2023/07/12 08:36:35;;;;;;;;;;;;;;;29.03;39.51;101042.37;102999;1284;62053;-82
2023/07/12 08:39:00;;;;;;;;;;;;;;;29.03;39.44;101040.73;103260;1284;63101;-82
2023/07/12 08:41:26;;;;;;;;;;;;;;;29.03;39.31;101037.45;103317;1284;62688;-82
2023/07/12 08:43:51;;;;;;;;;;;;;;;29.02;39.29;101032.64;103485;1285;62179;-82
2023/07/12 08:46:18;;;;;;;;;;;;;;;29.02;39.39;101034.30;103239;1287;62316;-82
2023/07/12 08:48:44;;;;;;;;;;;;;;;29.02;39.25;101033.23;103187;1286;62270;-82
2023/07/12 08:51:16;;;;;;;;;;;;;;;29.01;39.27;101027.63;104064;1284;62233;-82
2023/07/12 08:53:41;;;;;;;;;;;;;;;29.01;39.28;101028.57;103806;1284;63853;-82
2023/07/12 08:56:09;;;;;;;;;;;;;;;29.02;39.20;101024.91;103595;1289;63236;-82
2023/07/12 08:58:41;;;;;;;;;;;;;;;29.02;39.15;101028.52;103392;1286;62995;-82
2023/07/12 09:01:08;;;;;;;;;;;;;;;29.02;39.17;101035.22;103228;1284;60836;-82
2023/07/12 09:03:33;;;;;;;;;;;;;;;29.02;39.29;101034.30;103049;1288;64627;-82
2023/07/12 09:05:59;;;;;;;;;;;;;;;29.01;39.14;101025.31;103477;1284;62368;-82
2023/07/12 09:08:35;;;;;;;;;;;;;;;29.01;39.12;101030.58;103792;1284;60800;-82
2023/07/12 09:11:00;;;;;;;;;;;;;;;29.01;39.12;101035.79;103452;1284;62098;-82
2023/07/12 09:13:36;;;;;;;;;;;;;;;29.02;39.25;101036.48;103452;1284;62264;-82
2023/07/12 09:16:01;;;;;;;;;;;;;;;29.02;39.12;101031.05;103690;1288;66665;-82
2023/07/12 09:18:31;;;;;;;;;;;;;;;29.02;39.20;101020.10;103500;1285;62179;-82
2023/07/12 09:20:58;;;;;;;;;;;;;;;29.03;39.20;101012.83;103619;1284;60782;-82
2023/07/12 09:23:24;;;;;;;;;;;;;;;29.03;39.20;101012.09;103624;1285;63751;-82
2023/07/12 09:25:54;;;;;;;;;;;;;;;29.03;39.14;101009.17;103680;1285;62154;-82
2023/07/12 09:28:20;;;;;;;;;;;;;;;29.03;39.22;101003.19;104027;1287;62057;-82
2023/07/12 09:30:45;;;;;;;;;;;;;;;29.03;38.99;100995.58;103322;1286;62192;-82
2023/07/12 09:33:25;;;;;;;;;;;;;;;29.03;38.99;100996.46;103522;1284;62968;-82
2023/07/12 09:35:51;;;;;;;;;;;;;;;29.04;38.87;100999.66;103286;1285;67429;-82
2023/07/12 09:38:18;;;;;;;;;;;;;;;29.04;39.09;101004.55;103312;1287;60803;-82
2023/07/12 09:40:49;;;;;;;;;;;;;;;29.04;38.95;101004.73;103837;1284;62091;-82
2023/07/12 09:43:20;;;;;;;;;;;;;;;29.04;38.90;101003.09;104556;1284;64758;-82
2023/07/12 09:45:54;;;;;;;;;;;;;;;29.04;39.00;101005.23;104140;1285;67797;-82
2023/07/12 09:48:19;;;;;;;;;;;;;;;29.04;39.00;101005.24;104179;1284;60704;-82
2023/07/12 09:50:57;;;;;;;;;;;;;;;29.04;38.84;101008.53;104213;1284;62219;-82
2023/07/12 09:53:27;;;;;;;;;;;;;;;29.04;38.77;101002.72;104162;1284;64829;-82
2023/07/12 09:55:54;;;;;;;;;;;;;;;29.05;38.75;100995.59;103846;1284;67565;-82
2023/07/12 09:58:24;;;;;;;;;;;;;;;29.05;38.83;100994.98;103673;1286;62127;-82
2023/07/12 10:00:55;;;;;;;;;;;;;;;29.06;38.75;100989.69;103959;1287;60710;-82
2023/07/12 10:03:24;;;;;;;;;;;;;;;29.06;38.94;100981.91;103605;1287;64679;-82
2023/07/12 10:05:56;;;;;;;;;;;;;;;29.06;38.71;100976.27;103852;1284;67705;-82
2023/07/12 10:08:22;;;;;;;;;;;;;;;29.06;38.75;100972.80;104384;1284;62017;-82
2023/07/12 10:11:04;;;;;;;;;;;;;;;29.05;38.69;100966.89;104314;1284;62183;-82
2023/07/12 10:13:34;;;;;;;;;;;;;;;29.05;38.87;100962.37;103834;1284;64838;-82
2023/07/12 10:16:00;;;;;;;;;;;;;;;29.06;38.80;100964.13;103801;1284;66624;-82
2023/07/12 10:18:26;;;;;;;;;;;;;;;29.06;38.64;100961.21;103561;1284;60882;-82
2023/07/12 10:20:51;;;;;;;;;;;;;;;29.06;38.72;100960.84;103397;1284;62223;-82
2023/07/12 10:23:18;;;;;;;;;;;;;;;29.06;38.83;100950.00;103182;1284;60958;-82
2023/07/12 10:25:48;;;;;;;;;;;;;;;29.06;38.75;100942.36;103242;1284;62285;-82
2023/07/12 10:28:26;;;;;;;;;;;;;;;29.06;38.57;100943.27;103453;1285;62838;-82
2023/07/12 10:30:52;;;;;;;;;;;;;;;29.06;38.55;100949.81;103616;1284;62024;-82
2023/07/12 10:33:19;;;;;;;;;;;;;;;29.06;38.71;100957.72;103305;1285;62288;-82
2023/07/12 10:35:47;;;;;;;;;;;;;;;29.07;38.54;100953.17;103634;1284;67867;-82
2023/07/12 10:38:16;;;;;;;;;;;;;;;29.07;38.74;100945.12;103356;1284;63001;-82
2023/07/12 10:40:48;;;;;;;;;;;;;;;29.07;38.76;100940.58;104254;1286;61926;-82
2023/07/12 10:43:40;;;;;;;;;;;;;;;29.08;38.78;100936.91;104070;1284;63910;-82
2023/07/12 10:46:21;;;;;;;;;;;;;;;29.08;38.72;100932.90;106327;1285;66653;-82
2023/07/12 10:48:49;;;;;;;;;;;;;;;29.08;38.50;100930.52;104106;1283;60803;-82
2023/07/12 10:51:17;;;;;;;;;;;;;;;29.08;38.72;100930.52;103256;1287;60831;-82
2023/07/12 10:53:51;;;;;;;;;;;;;;;29.09;38.70;100936.13;103074;1285;66104;-82
2023/07/12 10:56:17;;;;;;;;;;;;;;;29.08;38.84;100934.90;103331;1285;67560;-82
2023/07/12 10:58:50;;;;;;;;;;;;;;;29.09;38.69;100933.76;103570;1285;62194;-82
2023/07/12 11:01:36;;;;;;;;;;;;;;;29.09;38.62;100931.95;103333;1285;62079;-82
2023/07/12 11:04:08;;;;;;;;;;;;;;;29.08;38.76;100931.61;103403;1284;64843;-82
2023/07/12 11:06:33;;;;;;;;;;;;;;;29.09;38.63;100924.51;103446;1287;66644;-82
2023/07/12 11:08:59;;;;;;;;;;;;;;;29.08;38.72;100916.94;103650;1284;60893;-82
2023/07/12 11:11:29;;;;;;;;;;;;;;;29.08;38.88;100914.40;104315;1288;62163;-83
2023/07/12 11:13:58;;;;;;;;;;;;;;;29.09;38.86;100916.02;104341;1284;64414;-82
2023/07/12 11:16:25;;;;;;;;;;;;;;;29.09;38.84;100920.54;104089;1288;66968;-82
2023/07/12 11:18:54;;;;;;;;;;;;;;;29.09;38.83;100917.61;103993;1284;61982;-82
2023/07/12 11:21:39;;;;;;;;;;;;;;;29.09;38.88;100915.24;104505;1286;62193;-82
2023/07/12 11:24:31;;;;;;;;;;;;;;;29.09;38.71;100920.48;103681;1286;63769;-82
2023/07/12 11:26:58;;;;;;;;;;;;;;;29.10;38.70;100928.91;103513;1284;66857;-82
2023/07/12 11:29:31;;;;;;;;;;;;;;;29.10;38.74;100922.42;103464;1285;62961;-82
2023/07/12 11:32:16;;;;;;;;;;;;;;;29.10;38.87;100913.72;103278;1284;62086;-82
2023/07/12 11:34:42;;;;;;;;;;;;;;;29.10;38.95;100913.17;103824;1290;63942;-82
2023/07/12 11:37:21;;;;;;;;;;;;;;;29.10;38.83;100912.97;103397;1284;62254;-82
2023/07/12 11:39:47;;;;;;;;;;;;;;;29.09;38.77;100905.40;103427;1286;62058;-82
2023/07/12 11:42:24;;;;;;;;;;;;;;;29.10;38.87;100896.13;103187;1288;60905;-82
2023/07/12 11:45:02;;;;;;;;;;;;;;;29.10;38.82;100889.42;103176;1289;65428;-82
2023/07/12 11:47:28;;;;;;;;;;;;;;;29.10;38.86;100884.66;103029;1288;68007;-82
2023/07/12 11:49:55;;;;;;;;;;;;;;;29.11;38.92;100881.01;103078;1286;62177;-82
2023/07/12 11:52:21;;;;;;;;;;;;;;;29.11;38.75;100885.52;103449;1288;62381;-82
2023/07/12 11:54:47;;;;;;;;;;;;;;;29.11;38.83;100885.36;103853;1289;61995;-82
2023/07/12 11:57:13;;;;;;;;;;;;;;;29.10;38.92;100877.95;103667;1287;63017;-82
2023/07/12 11:59:39;;;;;;;;;;;;;;;29.11;38.86;100868.67;103402;1290;60873;-82
2023/07/12 12:02:09;;;;;;;;;;;;;;;29.11;38.87;100868.27;103792;1285;62987;-82
2023/07/12 12:04:35;;;;;;;;;;;;;;;29.11;39.00;100873.70;103858;1287;63855;-82
2023/07/12 12:07:22;;;;;;;;;;;;;;;29.12;38.97;100873.23;103440;1287;62375;-82
2023/07/12 12:09:47;;;;;;;;;;;;;;;29.13;38.83;100874.64;103513;1287;62193;-82
2023/07/12 12:12:14;;;;;;;;;;;;;;;29.13;38.89;100869.94;103208;1286;62187;-82
2023/07/12 12:14:41;;;;;;;;;;;;;;;29.14;39.00;100865.50;102982;1287;62171;-82
2023/07/12 12:17:07;;;;;;;;;;;;;;;29.14;38.96;100868.53;102749;1286;62862;-82
2023/07/12 12:19:32;;;;;;;;;;;;;;;29.15;38.94;100864.69;102792;1290;62186;-82
2023/07/12 12:22:02;;;;;;;;;;;;;;;29.15;39.06;100863.38;103399;1286;63002;-82
2023/07/12 12:24:33;;;;;;;;;;;;;;;29.15;39.02;100861.17;103051;1286;64038;-82